sensor_id;sensor_type;location;lat;lon;timestamp;pressure;altitude;pressure_sealevel;temperature;humidity
41312;BME280;27061;41.648;24.568;2022-09-14T00:01:36;85969.56;;;12.96;55.33
41312;BME280;27061;41.648;24.568;2022-09-14T00:04:32;85955.78;;;12.90;55.57
41312;BME280;27061;41.648;24.568;2022-09-14T00:06:59;85957.31;;;12.83;55.77
41312;BME280;27061;41.648;24.568;2022-09-14T00:12:23;85958.75;;;12.80;55.91
41312;BME280;27061;41.648;24.568;2022-09-14T00:14:52;85943.72;;;12.67;56.19
41312;BME280;27061;41.648;24.568;2022-09-14T00:17:19;85912.19;;;12.45;56.09
41312;BME280;27061;41.648;24.568;2022-09-14T00:19:48;85932.84;;;12.55;56.26
41312;BME280;27061;41.648;24.568;2022-09-14T00:22:15;85934.38;;;12.48;56.52
41312;BME280;27061;41.648;24.568;2022-09-14T00:24:44;85959.59;;;12.72;56.61
41312;BME280;27061;41.648;24.568;2022-09-14T00:27:12;85949.44;;;12.59;56.16
41312;BME280;27061;41.648;24.568;2022-09-14T00:29:40;85935.06;;;12.48;56.21
41312;BME280;27061;41.648;24.568;2022-09-14T00:32:07;85939.19;;;12.49;56.32
41312;BME280;27061;41.648;24.568;2022-09-14T00:34:35;85946.66;;;12.59;56.11
41312;BME280;27061;41.648;24.568;2022-09-14T00:37:02;85958.97;;;12.68;55.66
41312;BME280;27061;41.648;24.568;2022-09-14T00:39:30;85946.75;;;12.53;55.98
41312;BME280;27061;41.648;24.568;2022-09-14T00:41:57;85943.97;;;12.53;56.06
41312;BME280;27061;41.648;24.568;2022-09-14T00:46:54;85878.88;;;12.06;56.11
41312;BME280;27061;41.648;24.568;2022-09-14T00:52:15;85890.06;;;12.02;55.89
41312;BME280;27061;41.648;24.568;2022-09-14T00:57:16;85955.97;;;12.41;56.24
41312;BME280;27061;41.648;24.568;2022-09-14T00:59:47;85974.56;;;12.51;56.22
41312;BME280;27061;41.648;24.568;2022-09-14T01:02:16;85933.38;;;12.24;56.25
41312;BME280;27061;41.648;24.568;2022-09-14T01:04:47;85955.22;;;12.44;55.99
41312;BME280;27061;41.648;24.568;2022-09-14T01:20:26;85956.22;;;12.29;56.50
41312;BME280;27061;41.648;24.568;2022-09-14T01:26:05;85956.88;;;12.29;56.56
41312;BME280;27061;41.648;24.568;2022-09-14T01:28:50;85954.28;;;12.19;56.65
41312;BME280;27061;41.648;24.568;2022-09-14T01:31:33;85955.03;;;12.16;56.96
41312;BME280;27061;41.648;24.568;2022-09-14T01:34:14;85944.09;;;12.07;56.96
41312;BME280;27061;41.648;24.568;2022-09-14T01:36:46;85959.19;;;12.17;57.22
41312;BME280;27061;41.648;24.568;2022-09-14T01:39:20;85946.19;;;12.05;56.97
41312;BME280;27061;41.648;24.568;2022-09-14T01:41:49;85907.78;;;11.79;56.71
41312;BME280;27061;41.648;24.568;2022-09-14T01:44:30;85916.03;;;11.83;57.00
41312;BME280;27061;41.648;24.568;2022-09-14T01:47:16;85937.94;;;12.01;56.93
41312;BME280;27061;41.648;24.568;2022-09-14T01:49:50;85954.50;;;12.07;57.01
41312;BME280;27061;41.648;24.568;2022-09-14T01:52:24;85939.50;;;11.90;57.20
41312;BME280;27061;41.648;24.568;2022-09-14T01:57:45;85964.34;;;11.98;57.37
41312;BME280;27061;41.648;24.568;2022-09-14T02:00:18;85961.63;;;11.94;57.33
41312;BME280;27061;41.648;24.568;2022-09-14T02:02:53;85965.03;;;11.98;56.73
41312;BME280;27061;41.648;24.568;2022-09-14T02:05:29;85967.19;;;11.94;56.95
41312;BME280;27061;41.648;24.568;2022-09-14T02:08:01;85924.63;;;11.64;57.26
41312;BME280;27061;41.648;24.568;2022-09-14T02:10:28;85893.72;;;11.46;57.14
41312;BME280;27061;41.648;24.568;2022-09-14T02:12:57;85911.03;;;11.46;57.45
41312;BME280;27061;41.648;24.568;2022-09-14T02:15:24;85947.41;;;11.71;57.82
41312;BME280;27061;41.648;24.568;2022-09-14T02:17:52;85937.06;;;11.65;57.82
41312;BME280;27061;41.648;24.568;2022-09-14T02:21:09;85928.91;;;11.55;57.72
41312;BME280;27061;41.648;24.568;2022-09-14T02:23:10;85973.50;;;11.88;57.19
41312;BME280;27061;41.648;24.568;2022-09-14T02:25:39;85958.47;;;11.73;57.62
41312;BME280;27061;41.648;24.568;2022-09-14T02:28:10;85976.38;;;11.82;57.68
41312;BME280;27061;41.648;24.568;2022-09-14T02:30:56;85978.47;;;11.82;57.18
41312;BME280;27061;41.648;24.568;2022-09-14T02:33:55;85975.75;;;11.78;57.51
41312;BME280;27061;41.648;24.568;2022-09-14T02:36:27;85983.44;;;11.75;57.64
41312;BME280;27061;41.648;24.568;2022-09-14T02:39:09;85961.38;;;11.63;57.25
41312;BME280;27061;41.648;24.568;2022-09-14T02:44:33;85939.44;;;11.47;57.97
41312;BME280;27061;41.648;24.568;2022-09-14T02:49:55;85956.03;;;11.51;58.05
41312;BME280;27061;41.648;24.568;2022-09-14T02:52:35;85971.78;;;11.62;57.93
41312;BME280;27061;41.648;24.568;2022-09-14T02:55:09;85949.84;;;11.46;57.91
41312;BME280;27061;41.648;24.568;2022-09-14T02:58:12;85958.19;;;11.44;58.05
41312;BME280;27061;41.648;24.568;2022-09-14T03:00:47;85966.41;;;11.50;57.99
41312;BME280;27061;41.648;24.568;2022-09-14T03:03:19;85977.47;;;11.54;57.98
41312;BME280;27061;41.648;24.568;2022-09-14T03:05:48;85954.19;;;11.33;58.09
41312;BME280;27061;41.648;24.568;2022-09-14T03:08:15;85961.09;;;11.34;57.98
41312;BME280;27061;41.648;24.568;2022-09-14T03:10:44;85964.59;;;11.32;58.05
41312;BME280;27061;41.648;24.568;2022-09-14T03:13:11;85970.84;;;11.31;58.42
41312;BME280;27061;41.648;24.568;2022-09-14T03:15:39;85950.22;;;11.20;58.20
41312;BME280;27061;41.648;24.568;2022-09-14T03:18:07;85974.91;;;11.38;58.08
41312;BME280;27061;41.648;24.568;2022-09-14T03:20:41;85975.00;;;11.32;58.38
41312;BME280;27061;41.648;24.568;2022-09-14T03:23:10;85989.44;;;11.38;58.48
41312;BME280;27061;41.648;24.568;2022-09-14T03:25:41;85989.44;;;11.38;58.64
41312;BME280;27061;41.648;24.568;2022-09-14T03:28:10;85996.38;;;11.40;58.08
41312;BME280;27061;41.648;24.568;2022-09-14T03:30:38;85988.16;;;11.33;58.57
41312;BME280;27061;41.648;24.568;2022-09-14T03:33:05;85955.94;;;11.06;58.64
41312;BME280;27061;41.648;24.568;2022-09-14T03:35:33;85997.19;;;11.30;58.71
41312;BME280;27061;41.648;24.568;2022-09-14T03:38:01;85990.28;;;11.27;58.71
41312;BME280;27061;41.648;24.568;2022-09-14T03:40:29;85939.47;;;10.91;58.94
41312;BME280;27061;41.648;24.568;2022-09-14T03:42:58;85973.88;;;11.11;58.96
41312;BME280;27061;41.648;24.568;2022-09-14T03:45:25;85973.84;;;11.13;58.94
41312;BME280;27061;41.648;24.568;2022-09-14T03:47:53;85961.53;;;11.02;58.95
41312;BME280;27061;41.648;24.568;2022-09-14T03:50:21;85967.09;;;11.02;59.02
41312;BME280;27061;41.648;24.568;2022-09-14T03:52:49;85973.94;;;11.07;58.98
41312;BME280;27061;41.648;24.568;2022-09-14T03:55:16;85978.03;;;11.12;58.70
41312;BME280;27061;41.648;24.568;2022-09-14T03:57:45;85954.66;;;10.98;58.79
41312;BME280;27061;41.648;24.568;2022-09-14T04:00:13;85986.22;;;11.22;58.96
41312;BME280;27061;41.648;24.568;2022-09-14T04:02:42;85947.75;;;10.95;58.93
41312;BME280;27061;41.648;24.568;2022-09-14T04:05:10;85970.44;;;11.10;58.76
41312;BME280;27061;41.648;24.568;2022-09-14T04:07:38;85973.25;;;11.06;59.27
41312;BME280;27061;41.648;24.568;2022-09-14T04:10:06;85991.88;;;11.12;59.33
41312;BME280;27061;41.648;24.568;2022-09-14T04:12:37;85973.97;;;11.02;59.21
41312;BME280;27061;41.648;24.568;2022-09-14T04:15:05;85970.59;;;10.98;58.83
41312;BME280;27061;41.648;24.568;2022-09-14T04:17:34;85971.38;;;10.90;59.34
41312;BME280;27061;41.648;24.568;2022-09-14T04:20:01;86001.63;;;11.09;59.43
41312;BME280;27061;41.648;24.568;2022-09-14T04:22:29;86014.78;;;11.08;59.42
41312;BME280;27061;41.648;24.568;2022-09-14T04:24:58;85990.69;;;10.94;60.06
41312;BME280;27061;41.648;24.568;2022-09-14T04:27:26;85975.56;;;10.85;59.65
41312;BME280;27061;41.648;24.568;2022-09-14T04:29:53;86003.00;;;11.08;60.09
41312;BME280;27061;41.648;24.568;2022-09-14T04:32:20;85992.03;;;10.99;60.30
41312;BME280;27061;41.648;24.568;2022-09-14T04:34:48;86004.38;;;11.09;60.02
41312;BME280;27061;41.648;24.568;2022-09-14T04:37:15;85985.84;;;10.95;60.27
41312;BME280;27061;41.648;24.568;2022-09-14T04:39:43;86014.09;;;11.08;60.47
41312;BME280;27061;41.648;24.568;2022-09-14T04:42:10;85966.13;;;10.64;60.60
41312;BME280;27061;41.648;24.568;2022-09-14T04:44:38;85984.19;;;10.59;61.28
41312;BME280;27061;41.648;24.568;2022-09-14T04:47:06;85995.78;;;10.76;61.43
41312;BME280;27061;41.648;24.568;2022-09-14T04:49:33;86009.47;;;10.90;62.13
41312;BME280;27061;41.648;24.568;2022-09-14T04:52:00;86015.59;;;10.96;62.79
41312;BME280;27061;41.648;24.568;2022-09-14T04:54:28;86009.41;;;10.92;63.13
41312;BME280;27061;41.648;24.568;2022-09-14T04:56:56;86021.06;;;11.05;63.42
41312;BME280;27061;41.648;24.568;2022-09-14T04:59:24;86004.44;;;11.05;64.42
41312;BME280;27061;41.648;24.568;2022-09-14T05:01:51;85982.50;;;10.86;65.19
41312;BME280;27061;41.648;24.568;2022-09-14T05:04:19;85972.72;;;10.91;64.85
41312;BME280;27061;41.648;24.568;2022-09-14T05:06:47;85954.88;;;10.80;64.90
41312;BME280;27061;41.648;24.568;2022-09-14T05:09:17;86002.78;;;11.24;65.60
41312;BME280;27061;41.648;24.568;2022-09-14T05:11:45;85997.22;;;11.28;65.58
41312;BME280;27061;41.648;24.568;2022-09-14T05:14:13;86010.91;;;11.42;65.12
41312;BME280;27061;41.648;24.568;2022-09-14T05:16:42;85987.47;;;11.33;64.93
41312;BME280;27061;41.648;24.568;2022-09-14T05:19:15;85995.72;;;11.35;65.81
41312;BME280;27061;41.648;24.568;2022-09-14T05:21:44;86015.59;;;11.54;67.08
41312;BME280;27061;41.648;24.568;2022-09-14T05:24:16;85976.31;;;11.37;66.88
41312;BME280;27061;41.648;24.568;2022-09-14T05:26:45;85991.34;;;11.52;67.97
41312;BME280;27061;41.648;24.568;2022-09-14T05:29:14;85965.16;;;11.41;68.56
41312;BME280;27061;41.648;24.568;2022-09-14T05:31:42;85981.53;;;11.59;67.35
41312;BME280;27061;41.648;24.568;2022-09-14T05:34:10;85987.47;;;11.82;64.83
41312;BME280;27061;41.648;24.568;2022-09-14T05:36:39;85986.16;;;11.77;66.13
41312;BME280;27061;41.648;24.568;2022-09-14T05:39:07;85978.56;;;11.76;67.79
41312;BME280;27061;41.648;24.568;2022-09-14T05:41:36;86013.38;;;12.12;66.50
41312;BME280;27061;41.648;24.568;2022-09-14T05:44:04;85987.91;;;11.99;67.02
41312;BME280;27061;41.648;24.568;2022-09-14T05:46:32;85987.72;;;12.11;65.60
41312;BME280;27061;41.648;24.568;2022-09-14T05:49:00;85999.84;;;12.32;65.02
41312;BME280;27061;41.648;24.568;2022-09-14T05:51:27;86007.94;;;12.49;64.25
41312;BME280;27061;41.648;24.568;2022-09-14T05:53:56;85971.31;;;12.38;61.63
41312;BME280;27061;41.648;24.568;2022-09-14T05:56:27;86018.03;;;12.66;60.95
41312;BME280;27061;41.648;24.568;2022-09-14T05:58:55;85988.94;;;12.61;61.19
41312;BME280;27061;41.648;24.568;2022-09-14T06:01:27;86019.88;;;12.80;63.58
41312;BME280;27061;41.648;24.568;2022-09-14T06:03:58;85987.50;;;12.64;63.79
41312;BME280;27061;41.648;24.568;2022-09-14T06:06:31;86004.66;;;12.77;64.23
41312;BME280;27061;41.648;24.568;2022-09-14T06:09:00;85997.56;;;12.84;63.21
41312;BME280;27061;41.648;24.568;2022-09-14T06:11:31;85979.63;;;12.79;63.83
41312;BME280;27061;41.648;24.568;2022-09-14T06:14:01;86012.50;;;13.03;64.47
41312;BME280;27061;41.648;24.568;2022-09-14T06:16:29;85993.78;;;13.02;63.39
41312;BME280;27061;41.648;24.568;2022-09-14T06:18:58;86015.63;;;13.24;61.57
41312;BME280;27061;41.648;24.568;2022-09-14T06:21:30;85985.88;;;13.16;61.95
41312;BME280;27061;41.648;24.568;2022-09-14T06:23:58;85994.63;;;13.31;61.56
41312;BME280;27061;41.648;24.568;2022-09-14T06:26:27;86027.41;;;13.60;61.49
41312;BME280;27061;41.648;24.568;2022-09-14T06:28:54;86023.03;;;13.69;61.80
41312;BME280;27061;41.648;24.568;2022-09-14T06:31:22;86031.78;;;13.83;59.88
41312;BME280;27061;41.648;24.568;2022-09-14T06:33:51;86012.59;;;13.69;62.66
41312;BME280;27061;41.648;24.568;2022-09-14T06:36:24;86007.06;;;13.67;64.29
41312;BME280;27061;41.648;24.568;2022-09-14T06:38:53;86028.84;;;13.89;64.25
41312;BME280;27061;41.648;24.568;2022-09-14T06:41:22;86047.22;;;14.09;62.95
41312;BME280;27061;41.648;24.568;2022-09-14T06:43:55;86019.03;;;13.95;63.45
41312;BME280;27061;41.648;24.568;2022-09-14T06:46:26;86047.50;;;14.28;62.09
41312;BME280;27061;41.648;24.568;2022-09-14T06:51:32;86032.25;;;14.25;62.60
41312;BME280;27061;41.648;24.568;2022-09-14T06:54:00;86060.72;;;14.60;62.56
41312;BME280;27061;41.648;24.568;2022-09-14T06:56:31;86061.94;;;14.68;63.14
41312;BME280;27061;41.648;24.568;2022-09-14T06:58:59;86039.94;;;14.55;63.05
41312;BME280;27061;41.648;24.568;2022-09-14T07:01:27;86057.59;;;14.75;62.27
41312;BME280;27061;41.648;24.568;2022-09-14T07:03:56;86075.22;;;14.94;61.52
41312;BME280;27061;41.648;24.568;2022-09-14T07:06:28;86068.66;;;15.06;62.33
41312;BME280;27061;41.648;24.568;2022-09-14T07:08:57;86066.31;;;15.16;61.37
41312;BME280;27061;41.648;24.568;2022-09-14T07:11:26;86059.06;;;15.27;59.01
41312;BME280;27061;41.648;24.568;2022-09-14T07:13:55;86060.28;;;15.34;59.53
41312;BME280;27061;41.648;24.568;2022-09-14T07:16:28;86064.31;;;15.39;60.07
41312;BME280;27061;41.648;24.568;2022-09-14T07:19:01;86069.59;;;15.52;60.42
41312;BME280;27061;41.648;24.568;2022-09-14T07:21:30;86049.38;;;15.51;59.71
41312;BME280;27061;41.648;24.568;2022-09-14T07:23:59;86069.84;;;15.68;59.97
41312;BME280;27061;41.648;24.568;2022-09-14T07:26:31;86057.13;;;15.76;60.26
41312;BME280;27061;41.648;24.568;2022-09-14T07:29:03;86064.28;;;15.93;59.41
41312;BME280;27061;41.648;24.568;2022-09-14T07:31:53;86080.75;;;16.03;58.99
41312;BME280;27061;41.648;24.568;2022-09-14T07:34:20;86072.09;;;16.14;59.13
41312;BME280;27061;41.648;24.568;2022-09-14T07:36:50;86068.31;;;16.23;57.03
41312;BME280;27061;41.648;24.568;2022-09-14T07:39:17;86044.16;;;16.14;57.04
41312;BME280;27061;41.648;24.568;2022-09-14T07:41:44;86054.00;;;16.35;56.77
41312;BME280;27061;41.648;24.568;2022-09-14T07:44:15;86038.03;;;16.32;55.37
41312;BME280;27061;41.648;24.568;2022-09-14T07:46:44;86077.34;;;16.73;53.72
41312;BME280;27061;41.648;24.568;2022-09-14T07:49:12;86039.28;;;16.62;52.72
41312;BME280;27061;41.648;24.568;2022-09-14T07:51:40;86050.41;;;16.84;52.75
41312;BME280;27061;41.648;24.568;2022-09-14T07:54:11;86049.06;;;16.83;50.27
41312;BME280;27061;41.648;24.568;2022-09-14T07:56:39;86045.81;;;16.98;50.72
41312;BME280;27061;41.648;24.568;2022-09-14T07:59:09;86058.41;;;17.19;52.13
41312;BME280;27061;41.648;24.568;2022-09-14T08:01:58;86032.41;;;17.02;51.02
41312;BME280;27061;41.648;24.568;2022-09-14T08:04:25;86045.66;;;17.25;51.66
41312;BME280;27061;41.648;24.568;2022-09-14T08:06:53;86059.03;;;17.43;49.93
41312;BME280;27061;41.648;24.568;2022-09-14T08:09:21;86023.06;;;17.31;49.42
41312;BME280;27061;41.648;24.568;2022-09-14T08:11:49;86047.44;;;17.55;47.88
41312;BME280;27061;41.648;24.568;2022-09-14T08:14:16;86038.34;;;17.54;43.58
41312;BME280;27061;41.648;24.568;2022-09-14T08:16:44;86083.38;;;17.90;42.82
41312;BME280;27061;41.648;24.568;2022-09-14T08:19:14;86068.47;;;17.96;45.80
41312;BME280;27061;41.648;24.568;2022-09-14T08:21:43;86057.13;;;18.00;44.59
41312;BME280;27061;41.648;24.568;2022-09-14T08:24:16;86046.59;;;18.00;42.13
41312;BME280;27061;41.648;24.568;2022-09-14T08:26:46;86061.44;;;18.15;46.22
41312;BME280;27061;41.648;24.568;2022-09-14T08:29:16;86065.56;;;18.18;44.77
41312;BME280;27061;41.648;24.568;2022-09-14T08:31:46;86077.22;;;18.44;44.14
41312;BME280;27061;41.648;24.568;2022-09-14T08:34:15;86058.66;;;18.34;39.29
41312;BME280;27061;41.648;24.568;2022-09-14T08:36:46;86076.78;;;18.56;41.51
41312;BME280;27061;41.648;24.568;2022-09-14T08:39:16;86072.13;;;18.69;43.36
41312;BME280;27061;41.648;24.568;2022-09-14T08:41:47;86080.84;;;18.80;43.04
41312;BME280;27061;41.648;24.568;2022-09-14T08:49:45;86083.16;;;19.11;36.51
41312;BME280;27061;41.648;24.568;2022-09-14T08:52:27;86087.75;;;19.18;38.29
41312;BME280;27061;41.648;24.568;2022-09-14T08:54:58;86078.75;;;19.16;40.47
41312;BME280;27061;41.648;24.568;2022-09-14T08:57:50;86076.91;;;19.27;39.69
41312;BME280;27061;41.648;24.568;2022-09-14T09:00:24;86098.41;;;19.51;40.34
41312;BME280;27061;41.648;24.568;2022-09-14T09:03:20;86090.44;;;19.58;40.07
41312;BME280;27061;41.648;24.568;2022-09-14T09:06:27;86090.25;;;19.62;35.26
41312;BME280;27061;41.648;24.568;2022-09-14T09:11:55;86046.50;;;19.50;36.30
41312;BME280;27061;41.648;24.568;2022-09-14T09:14:29;86076.59;;;19.87;32.81
41312;BME280;27061;41.648;24.568;2022-09-14T09:17:00;86072.84;;;19.93;36.31
41312;BME280;27061;41.648;24.568;2022-09-14T09:19:33;86088.75;;;20.15;30.75
41312;BME280;27061;41.648;24.568;2022-09-14T09:22:05;86085.88;;;20.17;33.61
41312;BME280;27061;41.648;24.568;2022-09-14T09:24:41;86082.03;;;20.25;30.69
41312;BME280;27061;41.648;24.568;2022-09-14T09:27:12;86060.56;;;20.17;34.61
41312;BME280;27061;41.648;24.568;2022-09-14T09:29:41;86058.75;;;20.26;34.76
41312;BME280;27061;41.648;24.568;2022-09-14T09:32:17;86077.50;;;20.49;35.38
41312;BME280;27061;41.648;24.568;2022-09-14T09:34:56;86071.88;;;20.49;36.27
41312;BME280;27061;41.648;24.568;2022-09-14T09:37:38;86042.22;;;20.52;34.77
41312;BME280;27061;41.648;24.568;2022-09-14T09:40:30;86077.06;;;20.90;35.30
41312;BME280;27061;41.648;24.568;2022-09-14T09:43:07;86073.59;;;21.04;35.62
41312;BME280;27061;41.648;24.568;2022-09-14T09:48:13;86074.59;;;21.13;35.55
41312;BME280;27061;41.648;24.568;2022-09-14T09:50:51;86028.94;;;20.96;34.71
41312;BME280;27061;41.648;24.568;2022-09-14T09:53:22;86042.16;;;21.14;33.46
41312;BME280;27061;41.648;24.568;2022-09-14T09:55:51;86053.28;;;21.33;34.51
41312;BME280;27061;41.648;24.568;2022-09-14T09:58:34;86071.16;;;21.57;35.33
41312;BME280;27061;41.648;24.568;2022-09-14T10:01:06;86048.34;;;21.48;34.07
41312;BME280;27061;41.648;24.568;2022-09-14T10:03:39;86038.13;;;21.55;31.45
41312;BME280;27061;41.648;24.568;2022-09-14T10:06:10;86065.31;;;21.90;33.20
41312;BME280;27061;41.648;24.568;2022-09-14T10:08:43;86056.19;;;21.90;34.01
41312;BME280;27061;41.648;24.568;2022-09-14T10:12:09;86058.19;;;22.21;30.98
41312;BME280;27061;41.648;24.568;2022-09-14T10:14:36;86036.16;;;22.11;30.90
41312;BME280;27061;41.648;24.568;2022-09-14T10:17:27;86057.25;;;22.39;27.90
41312;BME280;27061;41.648;24.568;2022-09-14T10:19:54;86051.84;;;22.35;30.57
41312;BME280;27061;41.648;24.568;2022-09-14T10:27:46;86069.53;;;22.76;32.30
41312;BME280;27061;41.648;24.568;2022-09-14T10:30:43;86069.00;;;22.86;31.26
41312;BME280;27061;41.648;24.568;2022-09-14T10:33:16;86067.63;;;22.85;30.79
41312;BME280;27061;41.648;24.568;2022-09-14T10:38:41;86081.78;;;22.97;30.03
41312;BME280;27061;41.648;24.568;2022-09-14T10:41:21;86077.38;;;23.00;28.78
41312;BME280;27061;41.648;24.568;2022-09-14T10:55:03;86067.41;;;23.42;29.37
41312;BME280;27061;41.648;24.568;2022-09-14T10:57:57;86063.47;;;23.49;22.48
41312;BME280;27061;41.648;24.568;2022-09-14T11:00:31;86053.56;;;23.50;27.02
41312;BME280;27061;41.648;24.568;2022-09-14T11:03:20;86065.09;;;23.59;28.42
41312;BME280;27061;41.648;24.568;2022-09-14T11:09:00;86054.69;;;23.68;22.37
41312;BME280;27061;41.648;24.568;2022-09-14T11:11:51;86052.66;;;23.79;23.90
41312;BME280;27061;41.648;24.568;2022-09-14T11:17:23;86048.81;;;23.85;26.79
41312;BME280;27061;41.648;24.568;2022-09-14T11:20:20;86051.53;;;23.87;27.86
41312;BME280;27061;41.648;24.568;2022-09-14T11:23:05;86043.41;;;23.93;27.08
41312;BME280;27061;41.648;24.568;2022-09-14T11:26:03;86050.28;;;23.96;24.42
41312;BME280;27061;41.648;24.568;2022-09-14T11:28:32;86049.25;;;23.89;24.55
41312;BME280;27061;41.648;24.568;2022-09-14T11:31:09;86031.72;;;23.87;27.63
41312;BME280;27061;41.648;24.568;2022-09-14T11:34:24;86052.66;;;24.04;27.65
41312;BME280;27061;41.648;24.568;2022-09-14T11:36:57;86049.94;;;24.02;26.85
41312;BME280;27061;41.648;24.568;2022-09-14T11:39:33;86045.75;;;24.01;28.14
41312;BME280;27061;41.648;24.568;2022-09-14T11:42:06;86031.94;;;23.95;27.22
41312;BME280;27061;41.648;24.568;2022-09-14T11:44:40;86054.47;;;24.23;27.81
41312;BME280;27061;41.648;24.568;2022-09-14T11:47:16;86049.78;;;24.17;24.80
41312;BME280;27061;41.648;24.568;2022-09-14T11:50:43;86048.13;;;24.22;26.28
41312;BME280;27061;41.648;24.568;2022-09-14T11:52:46;86014.41;;;24.05;26.76
41312;BME280;27061;41.648;24.568;2022-09-14T11:55:17;86042.31;;;24.37;25.79
41312;BME280;27061;41.648;24.568;2022-09-14T11:57:47;86010.56;;;24.24;24.88
41312;BME280;27061;41.648;24.568;2022-09-14T12:00:42;86040.13;;;24.50;27.73
41312;BME280;27061;41.648;24.568;2022-09-14T12:05:42;86028.63;;;24.41;27.91
41312;BME280;27061;41.648;24.568;2022-09-14T12:08:36;86011.19;;;24.37;27.83
41312;BME280;27061;41.648;24.568;2022-09-14T12:17:29;86015.38;;;24.74;27.63
41312;BME280;27061;41.648;24.568;2022-09-14T12:36:10;85977.72;;;24.88;27.15
41312;BME280;27061;41.648;24.568;2022-09-14T12:43:55;85993.91;;;25.13;26.39
41312;BME280;27061;41.648;24.568;2022-09-14T12:54:23;86029.84;;;25.50;24.45
41312;BME280;27061;41.648;24.568;2022-09-14T12:57:02;86019.72;;;25.53;24.24
41312;BME280;27061;41.648;24.568;2022-09-14T12:59:39;86025.66;;;25.49;27.51
41312;BME280;27061;41.648;24.568;2022-09-14T13:04:59;86040.56;;;25.61;26.24
41312;BME280;27061;41.648;24.568;2022-09-14T13:07:31;86004.84;;;25.42;24.62
41312;BME280;27061;41.648;24.568;2022-09-14T13:10:00;85990.78;;;25.40;26.73
41312;BME280;27061;41.648;24.568;2022-09-14T13:12:42;86035.22;;;25.54;24.14
41312;BME280;27061;41.648;24.568;2022-09-14T13:20:54;86013.13;;;25.57;28.88
41312;BME280;27061;41.648;24.568;2022-09-14T13:25:55;86034.69;;;25.86;29.48
41312;BME280;27061;41.648;24.568;2022-09-14T13:28:26;86024.31;;;25.82;26.18
41312;BME280;27061;41.648;24.568;2022-09-14T13:30:57;86041.78;;;26.08;25.33
41312;BME280;27061;41.648;24.568;2022-09-14T13:33:27;86040.69;;;26.03;28.18
41312;BME280;27061;41.648;24.568;2022-09-14T13:35:58;86046.09;;;26.07;26.20
41312;BME280;27061;41.648;24.568;2022-09-14T13:38:33;86046.25;;;26.05;26.81
41312;BME280;27061;41.648;24.568;2022-09-14T13:41:06;86026.88;;;25.97;25.56
41312;BME280;27061;41.648;24.568;2022-09-14T13:43:36;86043.91;;;25.97;24.42
41312;BME280;27061;41.648;24.568;2022-09-14T13:46:06;86054.78;;;26.16;27.24
41312;BME280;27061;41.648;24.568;2022-09-14T13:48:36;86052.34;;;26.20;27.09
41312;BME280;27061;41.648;24.568;2022-09-14T13:51:07;86004.06;;;25.88;26.61
41312;BME280;27061;41.648;24.568;2022-09-14T13:53:45;86049.00;;;26.29;28.60
41312;BME280;27061;41.648;24.568;2022-09-14T13:59:11;86058.19;;;26.29;26.50
41312;BME280;27061;41.648;24.568;2022-09-14T14:01:42;86066.28;;;26.24;27.66
41312;BME280;27061;41.648;24.568;2022-09-14T14:04:36;86054.63;;;26.18;24.98
41312;BME280;27061;41.648;24.568;2022-09-14T14:09:48;86066.66;;;26.18;26.08
41312;BME280;27061;41.648;24.568;2022-09-14T14:12:27;86021.75;;;25.89;29.13
41312;BME280;27061;41.648;24.568;2022-09-14T14:17:39;86053.41;;;26.15;28.80
41312;BME280;27061;41.648;24.568;2022-09-14T14:23:17;86066.84;;;26.27;32.49
41312;BME280;27061;41.648;24.568;2022-09-14T14:25:53;86061.44;;;26.34;30.72
41312;BME280;27061;41.648;24.568;2022-09-14T14:28:32;86058.47;;;26.36;29.33
41312;BME280;27061;41.648;24.568;2022-09-14T14:31:00;86039.63;;;26.19;29.29
41312;BME280;27061;41.648;24.568;2022-09-14T14:33:42;86022.69;;;25.96;28.82
41312;BME280;27061;41.648;24.568;2022-09-14T14:36:10;86059.53;;;26.30;29.58
41312;BME280;27061;41.648;24.568;2022-09-14T14:38:37;86063.06;;;26.31;29.51
41312;BME280;27061;41.648;24.568;2022-09-14T14:41:14;86045.59;;;26.15;29.56
41312;BME280;27061;41.648;24.568;2022-09-14T14:43:43;86065.59;;;26.24;31.12
41312;BME280;27061;41.648;24.568;2022-09-14T14:46:16;86055.97;;;26.08;32.45
41312;BME280;27061;41.648;24.568;2022-09-14T14:48:43;86057.31;;;26.09;33.52
41312;BME280;27061;41.648;24.568;2022-09-14T14:51:12;86037.94;;;25.80;32.24
41312;BME280;27061;41.648;24.568;2022-09-14T14:53:41;86054.69;;;25.84;32.01
41312;BME280;27061;41.648;24.568;2022-09-14T14:56:11;86059.13;;;25.81;31.65
41312;BME280;27061;41.648;24.568;2022-09-14T14:58:45;86045.78;;;25.56;33.15
41312;BME280;27061;41.648;24.568;2022-09-14T15:01:13;86051.81;;;25.50;34.54
41312;BME280;27061;41.648;24.568;2022-09-14T15:03:42;86033.06;;;25.21;34.85
41312;BME280;27061;41.648;24.568;2022-09-14T15:06:17;86058.81;;;25.40;35.00
41312;BME280;27061;41.648;24.568;2022-09-14T15:08:45;86067.94;;;25.30;35.09
41312;BME280;27061;41.648;24.568;2022-09-14T15:11:17;86052.91;;;25.21;35.20
41312;BME280;27061;41.648;24.568;2022-09-14T15:13:45;86033.53;;;24.90;35.39
41312;BME280;27061;41.648;24.568;2022-09-14T15:16:13;86056.28;;;25.00;36.05
41312;BME280;27061;41.648;24.568;2022-09-14T15:18:42;86035.19;;;24.74;36.15
41312;BME280;27061;41.648;24.568;2022-09-14T15:21:10;86052.63;;;24.78;36.66
41312;BME280;27061;41.648;24.568;2022-09-14T15:23:38;86048.88;;;24.69;36.87
41312;BME280;27061;41.648;24.568;2022-09-14T15:26:05;86016.63;;;24.41;37.00
41312;BME280;27061;41.648;24.568;2022-09-14T15:28:34;86038.34;;;24.44;37.59
41312;BME280;27061;41.648;24.568;2022-09-14T15:31:04;86031.59;;;24.27;37.96
41312;BME280;27061;41.648;24.568;2022-09-14T15:33:33;86016.78;;;24.14;37.60